Time;durP1;ratioP1;P1;durP2;ratioP2;P2;SDS_P1;SDS_P2;PMS_P1;PMS_P2;Temp;Humidity;BMP_temperature;BMP_pressure;BME280_temperature;BME280_humidity;BME280_pressure;Samples;Min_cycle;Max_cycle;Signal;HPM_P1;HPM_P2
2022/03/20 00:02:17;;;;;;;;;;;;;;;21.14;39.86;96679.09;10517368;28;2094;-70
2022/03/20 00:07:18;;;;;;;;;;;;;;;21.13;39.44;96680.94;10515263;28;1913;-70
2022/03/20 00:12:19;;;;;;;;;;;;;;;21.15;39.08;96680.66;10510091;28;2024;-70
2022/03/20 00:17:20;;;;;;;;;;;;;;;21.16;38.95;96677.81;10516894;28;1826;-70
2022/03/20 00:22:20;;;;;;;;;;;;;;;21.17;38.35;96676.75;10508970;28;1875;-69
2022/03/20 00:27:21;;;;;;;;;;;;;;;21.16;38.44;96669.91;10522472;28;1901;-70
2022/03/20 00:32:22;;;;;;;;;;;;;;;21.17;38.31;96671.47;10515876;28;1898;-69
2022/03/20 00:37:23;;;;;;;;;;;;;;;21.18;37.79;96669.63;10520107;28;2019;-69
2022/03/20 00:42:26;;;;;;;;;;;;;;;21.17;37.27;96673.31;10528908;28;1802;-70
2022/03/20 00:47:26;;;;;;;;;;;;;;;21.18;36.64;96669.63;10503835;28;1905;-70
2022/03/20 00:52:26;;;;;;;;;;;;;;;21.18;36.34;96667.78;10511054;28;1836;-71
2022/03/20 00:57:27;;;;;;;;;;;;;;;21.19;36.50;96674.63;10492412;28;1758;-71
2022/03/20 01:02:27;;;;;;;;;;;;;;;21.19;36.13;96671.19;10511870;28;1842;-71
2022/03/20 01:07:27;;;;;;;;;;;;;;;21.19;36.05;96679.91;10521885;28;1972;-71
2022/03/20 01:12:28;;;;;;;;;;;;;;;21.20;35.88;96672.81;10492169;28;2101;-72
2022/03/20 01:17:29;;;;;;;;;;;;;;;21.22;35.50;96673.34;10503309;28;1875;-70
2022/03/20 01:22:30;;;;;;;;;;;;;;;21.21;35.43;96672.53;10500208;28;1785;-70
2022/03/20 01:27:31;;;;;;;;;;;;;;;21.22;35.12;96668.06;10514006;28;1969;-71
2022/03/20 01:32:31;;;;;;;;;;;;;;;21.22;35.00;96663.59;10517603;28;1876;-71
2022/03/20 01:37:32;;;;;;;;;;;;;;;21.24;34.71;96676.50;10511451;28;2309;-71
2022/03/20 01:42:32;;;;;;;;;;;;;;;21.22;34.08;96676.78;10516553;28;1909;-71
2022/03/20 01:47:32;;;;;;;;;;;;;;;21.23;34.17;96682.81;10518365;28;1914;-69
2022/03/20 01:52:33;;;;;;;;;;;;;;;21.24;33.97;96676.50;10490363;28;1952;-71
2022/03/20 01:57:36;;;;;;;;;;;;;;;21.24;33.19;96671.25;10497428;28;1886;-69
2022/03/20 02:02:37;;;;;;;;;;;;;;;21.25;33.11;96670.19;10495035;28;1942;-70
2022/03/20 02:07:38;;;;;;;;;;;;;;;21.25;32.59;96670.19;10511021;28;1910;-71
2022/03/20 02:12:38;;;;;;;;;;;;;;;21.27;32.34;96673.38;10497892;28;1960;-72
2022/03/20 02:17:39;;;;;;;;;;;;;;;21.26;32.34;96671.78;10513462;28;1906;-73
2022/03/20 02:22:43;;;;;;;;;;;;;;;21.27;31.94;96671.53;10505318;28;1870;-69
2022/03/20 02:27:44;;;;;;;;;;;;;;;21.28;31.45;96654.66;10517335;28;1914;-70
2022/03/20 02:32:46;;;;;;;;;;;;;;;21.26;31.81;96654.13;10495933;28;1991;-72
2022/03/20 02:37:48;;;;;;;;;;;;;;;21.29;31.21;96652.81;10487333;28;1847;-70
2022/03/20 02:42:48;;;;;;;;;;;;;;;21.30;31.05;96654.41;10455428;28;1194362;-72
2022/03/20 02:47:49;;;;;;;;;;;;;;;21.28;30.54;96648.59;10511664;28;1918;-71
2022/03/20 02:52:49;;;;;;;;;;;;;;;21.31;30.24;96646.22;10503211;28;1995;-71
2022/03/20 02:57:50;;;;;;;;;;;;;;;21.30;30.04;96638.56;10513265;28;2122;-71
2022/03/20 03:02:51;;;;;;;;;;;;;;;21.31;29.81;96648.09;10509910;28;1834;-71
2022/03/20 03:13:11;;;;;;;;;;;;;;;21.33;29.01;96675.78;10527070;28;1862;-71
2022/03/20 03:18:11;;;;;;;;;;;;;;;21.32;28.35;96683.94;10515817;28;1847;-70
2022/03/20 03:23:12;;;;;;;;;;;;;;;21.32;29.16;96690.03;10522765;28;1802;-70
2022/03/20 03:28:12;;;;;;;;;;;;;;;21.30;28.38;96693.94;10524033;28;2023;-70
2022/03/20 03:33:14;;;;;;;;;;;;;;;21.31;27.33;96704.25;10519135;28;1818;-70
2022/03/20 03:38:15;;;;;;;;;;;;;;;21.34;27.69;96705.59;10521871;28;2000;-70
2022/03/20 03:43:17;;;;;;;;;;;;;;;21.34;27.71;96697.66;10521277;28;1902;-70
2022/03/20 03:48:17;;;;;;;;;;;;;;;21.35;28.18;96704.53;10493608;28;1969;-70
2022/03/20 03:53:18;;;;;;;;;;;;;;;21.33;27.48;96699.50;10506123;28;1906;-71
2022/03/20 03:58:19;;;;;;;;;;;;;;;21.38;27.60;96711.94;10522891;28;1980;-71
2022/03/20 04:03:19;;;;;;;;;;;;;;;21.37;26.66;96702.44;10521402;28;1791;-71
2022/03/20 04:08:20;;;;;;;;;;;;;;;21.37;26.47;96703.22;10520946;28;1902;-70
2022/03/20 04:13:21;;;;;;;;;;;;;;;21.40;27.44;96720.38;10528399;28;2059;-71
2022/03/20 04:18:21;;;;;;;;;;;;;;;21.44;27.18;96714.34;10534480;28;1835;-71
2022/03/20 04:28:43;;;;;;;;;;;;;;;21.45;27.99;96715.16;10528279;28;1905;-71
2022/03/20 04:33:44;;;;;;;;;;;;;;;21.44;25.90;96718.81;10518031;28;1788;-70
2022/03/20 04:38:45;;;;;;;;;;;;;;;21.42;26.48;96718.28;10507435;28;2097;-71
2022/03/20 04:43:47;;;;;;;;;;;;;;;21.46;25.94;96714.09;10517588;28;1790;-71
2022/03/20 04:59:26;;;;;;;;;;;;;;;21.47;26.52;96729.69;10515437;28;1815;-71
2022/03/20 05:04:26;;;;;;;;;;;;;;;21.47;26.73;96734.16;10502759;28;1848;-70
2022/03/20 05:14:47;;;;;;;;;;;;;;;21.51;25.83;96751.06;10519766;28;2160;-71
2022/03/20 05:19:47;;;;;;;;;;;;;;;21.52;27.14;96755.25;10501009;28;1835;-70
2022/03/20 05:24:47;;;;;;;;;;;;;;;21.52;26.67;96760.53;10489823;28;1811;-71
2022/03/20 05:29:47;;;;;;;;;;;;;;;21.53;27.30;96760.31;10511062;28;2024;-71
2022/03/20 05:34:48;;;;;;;;;;;;;;;21.53;26.80;96764.78;10518489;28;1779;-71
2022/03/20 05:39:49;;;;;;;;;;;;;;;21.56;27.01;96766.91;10517530;28;2071;-70
2022/03/20 05:44:50;;;;;;;;;;;;;;;21.55;27.55;96765.31;10482200;28;1998;-70
2022/03/20 05:49:50;;;;;;;;;;;;;;;21.56;26.99;96769.53;10506209;28;1914;-70
2022/03/20 05:54:50;;;;;;;;;;;;;;;21.55;27.07;96773.25;10512612;28;1998;-70
2022/03/20 05:59:53;;;;;;;;;;;;;;;21.55;26.11;96779.31;10509622;28;1944;-70
2022/03/20 06:04:54;;;;;;;;;;;;;;;21.56;27.07;96774.81;10495828;28;2023;-70
2022/03/20 06:09:55;;;;;;;;;;;;;;;21.57;27.10;96779.84;10516878;28;1980;-70
2022/03/20 06:14:56;;;;;;;;;;;;;;;21.57;26.58;96782.50;10519799;28;1839;-71
2022/03/20 06:19:58;;;;;;;;;;;;;;;21.57;26.97;96798.31;10500697;28;1791;-70
2022/03/20 06:24:58;;;;;;;;;;;;;;;21.60;26.97;96802.28;10497767;28;1800;-70
2022/03/20 06:29:58;;;;;;;;;;;;;;;21.62;27.09;96808.91;10505700;28;1906;-70
2022/03/20 06:34:59;;;;;;;;;;;;;;;21.62;26.83;96805.44;10518083;28;1863;-70
2022/03/20 06:40:00;;;;;;;;;;;;;;;21.62;27.31;96816.00;10509097;28;1800;-70
2022/03/20 06:45:01;;;;;;;;;;;;;;;21.63;27.29;96809.69;10512241;28;1819;-70
2022/03/20 06:50:02;;;;;;;;;;;;;;;21.63;26.91;96813.13;10495888;28;2004;-70
2022/03/20 06:55:02;;;;;;;;;;;;;;;21.64;26.97;96821.81;10512309;28;1758;-70
2022/03/20 07:00:03;;;;;;;;;;;;;;;21.65;27.22;96826.88;10510725;28;1815;-71
2022/03/20 07:05:04;;;;;;;;;;;;;;;21.64;27.09;96819.19;10506343;28;2019;-70
2022/03/20 07:10:06;;;;;;;;;;;;;;;21.65;27.07;96831.34;10520149;28;2042;-71
2022/03/20 07:15:06;;;;;;;;;;;;;;;21.66;27.18;96833.72;10511841;28;1768;-69
2022/03/20 07:20:09;;;;;;;;;;;;;;;21.67;27.06;96834.53;10497363;28;1862;-70
2022/03/20 07:30:29;;;;;;;;;;;;;;;21.68;27.10;96857.22;10502316;28;1934;-71
2022/03/20 07:35:30;;;;;;;;;;;;;;;21.70;26.95;96865.69;10506199;28;1759;-71
2022/03/20 07:40:31;;;;;;;;;;;;;;;21.67;27.04;96856.44;10504483;28;1812;-70
2022/03/20 07:45:32;;;;;;;;;;;;;;;21.68;27.75;96859.84;10491563;28;1826;-66
2022/03/20 07:50:34;;;;;;;;;;;;;;;21.74;27.73;96857.00;10512839;28;1969;-65
2022/03/20 07:55:34;;;;;;;;;;;;;;;21.76;29.16;96856.75;10512635;28;2428;-67
2022/03/20 08:00:37;;;;;;;;;;;;;;;21.79;28.92;96864.97;10513894;28;2134;-69
2022/03/20 08:05:38;;;;;;;;;;;;;;;21.85;29.04;96868.44;10504601;28;1828;-69
2022/03/20 08:10:38;;;;;;;;;;;;;;;21.92;29.79;96865.59;10500037;28;1972;-69
2022/03/20 08:15:39;;;;;;;;;;;;;;;21.93;29.54;96867.19;10519091;28;1814;-69
2022/03/20 08:20:41;;;;;;;;;;;;;;;21.90;29.77;96878.25;10501391;28;1851;-71
2022/03/20 08:25:42;;;;;;;;;;;;;;;21.91;29.79;96878.00;10523122;28;1826;-69
2022/03/20 08:30:42;;;;;;;;;;;;;;;21.93;29.98;96875.13;10517557;28;1913;-69
2022/03/20 08:35:44;;;;;;;;;;;;;;;21.92;30.06;96876.16;10515818;28;1820;-70
2022/03/20 08:40:44;;;;;;;;;;;;;;;21.88;30.12;96879.28;10511892;28;1863;-70
2022/03/20 08:45:46;;;;;;;;;;;;;;;21.89;30.08;96885.38;10514176;28;1827;-69
2022/03/20 08:50:50;;;;;;;;;;;;;;;21.89;30.00;96872.16;10484395;28;1824;-70
2022/03/20 08:55:50;;;;;;;;;;;;;;;21.88;29.80;96875.06;10516962;28;2187;-70
2022/03/20 09:00:50;;;;;;;;;;;;;;;21.91;30.03;96871.94;10504596;28;1922;-71
2022/03/20 09:05:51;;;;;;;;;;;;;;;21.87;30.15;96876.91;10514924;28;1905;-70
2022/03/20 09:10:51;;;;;;;;;;;;;;;21.87;30.07;96871.63;10511024;28;1898;-71
2022/03/20 09:18:59;;;;;;;;;;;;;;;21.86;29.92;96870.81;10512866;28;1747;-70
2022/03/20 09:21:12;;;;;;;;;;;;;;;21.85;30.00;96869.25;10508675;28;1894;-70
2022/03/20 09:26:13;;;;;;;;;;;;;;;21.85;30.19;96874.53;10512678;28;1921;-70
2022/03/20 09:31:15;;;;;;;;;;;;;;;21.84;29.90;96877.44;10512225;28;1915;-70
2022/03/20 09:36:15;;;;;;;;;;;;;;;21.83;29.81;96867.91;10526866;28;1823;-69
2022/03/20 09:41:16;;;;;;;;;;;;;;;21.81;29.82;96867.34;10513381;28;1861;-69
2022/03/20 09:46:19;;;;;;;;;;;;;;;21.82;29.93;96869.75;10501969;28;1905;-69
2022/03/20 09:51:19;;;;;;;;;;;;;;;21.89;29.94;96872.16;10491742;28;1777;-70
2022/03/20 09:56:20;;;;;;;;;;;;;;;21.83;30.20;96873.19;10502187;28;1790;-68
2022/03/20 10:01:20;;;;;;;;;;;;;;;21.84;29.94;96882.72;10506299;28;1847;-67
2022/03/20 10:06:21;;;;;;;;;;;;;;;21.83;30.07;96876.63;10511953;28;1957;-69
2022/03/20 10:11:21;;;;;;;;;;;;;;;21.86;30.24;96888.53;10511995;28;1796;-68
2022/03/20 10:16:22;;;;;;;;;;;;;;;21.83;30.07;96878.47;10513845;28;1799;-68
2022/03/20 10:21:40;;;;;;;;;;;;;;;21.86;30.16;96867.41;10505514;28;1862;-71
2022/03/20 10:26:40;;;;;;;;;;;;;;;21.90;30.13;96876.41;10508785;28;1989;-70
2022/03/20 10:31:51;;;;;;;;;;;;;;;21.89;30.17;96872.16;10509518;28;1804;-69
2022/03/20 10:36:51;;;;;;;;;;;;;;;21.85;30.07;96863.16;10515424;28;1899;-71
2022/03/20 10:41:52;;;;;;;;;;;;;;;21.84;29.93;96866.88;10510330;28;1874;-71
2022/03/20 10:46:57;;;;;;;;;;;;;;;21.84;29.89;96872.16;10511381;28;2001;-69
2022/03/20 10:52:01;;;;;;;;;;;;;;;21.85;29.98;96873.72;10516735;28;1966;-70
2022/03/20 10:57:02;;;;;;;;;;;;;;;21.85;29.72;96861.34;10509363;28;1846;-71
2022/03/20 11:02:05;;;;;;;;;;;;;;;21.85;29.74;96877.16;10495379;28;1839;-71
2022/03/20 11:07:07;;;;;;;;;;;;;;;21.86;29.75;96870.81;10502440;28;1917;-69
2022/03/20 11:12:08;;;;;;;;;;;;;;;21.86;29.39;96864.78;10506987;28;1843;-68
2022/03/20 11:17:08;;;;;;;;;;;;;;;21.85;29.45;96873.72;10499767;28;1772;-69
2022/03/20 11:22:09;;;;;;;;;;;;;;;21.87;29.46;96863.72;10496114;28;1860;-69
2022/03/20 11:27:11;;;;;;;;;;;;;;;21.83;29.41;96860.78;10495172;28;1918;-70
2022/03/20 11:32:11;;;;;;;;;;;;;;;21.85;29.36;96863.97;10518010;28;1846;-72
2022/03/20 11:37:12;;;;;;;;;;;;;;;21.83;29.27;96854.72;10503599;28;1911;-71
2022/03/20 11:42:19;;;;;;;;;;;;;;;21.84;29.41;96851.03;10518595;28;1863;-71
2022/03/20 11:47:19;;;;;;;;;;;;;;;21.80;29.34;96850.69;10516622;28;1977;-70
2022/03/20 11:52:21;;;;;;;;;;;;;;;21.83;29.32;96849.44;10510375;28;1928;-70
2022/03/20 11:57:31;;;;;;;;;;;;;;;21.82;29.20;96840.72;10518997;28;2251;-67
2022/03/20 12:02:34;;;;;;;;;;;;;;;21.84;29.23;96845.75;10514837;28;1791;-70
2022/03/20 12:07:41;;;;;;;;;;;;;;;21.90;29.23;96846.56;10503886;28;2168;-73
2022/03/20 12:13:04;;;;;;;;;;;;;;;21.86;29.93;96844.44;10505106;28;1764;-73
2022/03/20 12:18:05;;;;;;;;;;;;;;;21.92;29.83;96842.63;10523003;28;1918;-71
2022/03/20 12:23:29;;;;;;;;;;;;;;;21.95;29.76;96839.47;10510798;28;1744;-73
2022/03/20 12:28:30;;;;;;;;;;;;;;;21.90;29.77;96831.53;10504565;28;1976;-74
2022/03/20 12:33:30;;;;;;;;;;;;;;;21.88;29.91;96833.63;10520645;28;1947;-71
2022/03/20 12:38:31;;;;;;;;;;;;;;;21.88;29.75;96827.56;10514028;28;1989;-72
2022/03/20 12:43:31;;;;;;;;;;;;;;;21.92;29.85;96820.72;10514848;28;1755;-73
2022/03/20 12:48:34;;;;;;;;;;;;;;;21.87;29.91;96832.03;10514499;28;1979;-73
2022/03/20 12:53:37;;;;;;;;;;;;;;;21.90;30.48;96822.81;10507990;28;1852;-72
2022/03/20 12:58:38;;;;;;;;;;;;;;;21.92;31.07;96821.50;10510529;28;1866;-71
2022/03/20 13:03:38;;;;;;;;;;;;;;;21.91;31.61;96821.78;10497531;28;1796;-71
2022/03/20 13:08:40;;;;;;;;;;;;;;;21.94;31.22;96819.41;10479603;28;1921;-74
2022/03/20 13:13:40;;;;;;;;;;;;;;;21.92;31.19;96826.78;10538728;28;1580;-69
2022/03/20 13:18:40;;;;;;;;;;;;;;;21.89;31.23;96811.44;10499194;28;1822;-70
2022/03/20 13:23:43;;;;;;;;;;;;;;;21.84;30.73;96803.53;10516521;28;1836;-70
2022/03/20 13:28:45;;;;;;;;;;;;;;;21.79;30.67;96803.44;10503007;28;1902;-69
2022/03/20 13:33:53;;;;;;;;;;;;;;;21.78;30.86;96804.53;10497494;28;1886;-71
2022/03/20 13:38:53;;;;;;;;;;;;;;;21.77;30.48;96802.91;10512252;28;1862;-69
2022/03/20 13:43:58;;;;;;;;;;;;;;;21.76;30.58;96796.06;10493369;28;1721;-71
2022/03/20 13:48:59;;;;;;;;;;;;;;;21.75;30.51;96791.81;10496225;28;2013;-73
2022/03/20 13:54:19;;;;;;;;;;;;;;;21.75;30.16;96787.34;10516714;28;1764;-72
2022/03/20 13:59:20;;;;;;;;;;;;;;;21.73;30.25;96793.91;10509183;28;1735;-70
2022/03/20 14:04:21;;;;;;;;;;;;;;;21.75;30.20;96800.53;10507609;28;1782;-71
2022/03/20 14:09:31;;;;;;;;;;;;;;;21.75;29.96;96787.34;10509430;28;1981;-72
2022/03/20 14:14:48;;;;;;;;;;;;;;;21.75;30.03;96791.81;10516759;28;1919;-70
2022/03/20 14:19:49;;;;;;;;;;;;;;;21.78;29.96;96807.16;10500155;28;2009;-71
2022/03/20 14:24:53;;;;;;;;;;;;;;;21.81;30.17;96807.47;10481771;28;1763;-70
2022/03/20 14:40:44;;;;;;;;;;;;;;;21.94;30.17;96800.13;10506948;28;1823;-71
2022/03/20 14:45:44;;;;;;;;;;;;;;;21.94;31.22;96800.94;10504178;28;1776;-70
2022/03/20 14:50:45;;;;;;;;;;;;;;;21.97;34.06;96800.41;10497688;28;1926;-70
2022/03/20 14:55:45;;;;;;;;;;;;;;;21.88;37.23;96805.38;10490525;28;1811;-69
2022/03/20 15:00:46;;;;;;;;;;;;;;;21.77;40.69;96801.06;10496033;28;1808;-68
2022/03/20 15:05:46;;;;;;;;;;;;;;;21.69;42.43;96803.41;10486092;28;1784;-70
2022/03/20 15:16:07;;;;;;;;;;;;;;;21.61;44.38;96809.97;10510202;28;1760;-71
2022/03/20 15:21:07;;;;;;;;;;;;;;;21.54;45.10;96803.28;10497227;28;1795;-71
2022/03/20 15:26:07;;;;;;;;;;;;;;;21.49;46.69;96796.16;10525916;28;1965;-70
2022/03/20 15:31:11;;;;;;;;;;;;;;;21.50;47.21;96805.66;10496206;28;1910;-69
2022/03/20 15:36:12;;;;;;;;;;;;;;;21.50;47.03;96786.38;10506015;28;1811;-69
2022/03/20 15:41:14;;;;;;;;;;;;;;;21.50;47.58;96789.03;10506888;28;1945;-71
2022/03/20 15:46:15;;;;;;;;;;;;;;;21.50;48.71;96794.31;10530922;28;1906;-68
2022/03/20 15:51:16;;;;;;;;;;;;;;;21.47;49.08;96795.63;10506944;28;1864;-69
2022/03/20 15:56:17;;;;;;;;;;;;;;;21.46;49.33;96790.59;10500128;22;2536;-42
2022/03/20 16:01:22;;;;;;;;;;;;;;;21.44;48.92;96787.41;10470661;28;1874;-44
2022/03/20 16:06:23;;;;;;;;;;;;;;;21.42;49.52;96787.66;10472684;28;1977;-40
2022/03/20 16:11:25;;;;;;;;;;;;;;;21.51;43.50;96790.63;10490802;22;2303;-52
2022/03/20 16:16:25;;;;;;;;;;;;;;;21.55;47.03;96804.91;10481588;28;1947;-55
2022/03/20 16:21:26;;;;;;;;;;;;;;;21.55;48.56;96802.25;10458687;28;1830;-56
2022/03/20 16:31:45;;;;;;;;;;;;;;;21.45;46.52;96808.25;10438685;28;1798;-58
2022/03/20 16:36:46;;;;;;;;;;;;;;;21.36;47.07;96809.78;10431016;28;1783;-57
2022/03/20 16:41:48;;;;;;;;;;;;;;;21.30;46.90;96810.00;10439469;28;1826;-58
2022/03/20 16:46:48;;;;;;;;;;;;;;;21.27;45.13;96803.38;10443824;28;1905;-56
2022/03/20 16:51:49;;;;;;;;;;;;;;;21.22;46.17;96803.34;10440779;28;1963;-57
2022/03/20 16:56:49;;;;;;;;;;;;;;;21.19;46.53;96801.19;10431597;28;1821;-58
2022/03/20 17:01:50;;;;;;;;;;;;;;;21.17;46.35;96807.75;10437450;28;1754;-58
2022/03/20 17:06:50;;;;;;;;;;;;;;;21.12;46.10;96810.38;10449872;28;1975;-57
2022/03/20 17:11:51;;;;;;;;;;;;;;;21.12;46.23;96815.66;10445960;28;1806;-59
2022/03/20 17:16:52;;;;;;;;;;;;;;;21.12;44.98;96813.00;10445504;28;1773;-56
2022/03/20 17:21:52;;;;;;;;;;;;;;;21.05;45.99;96819.28;10438213;28;1807;-57
2022/03/20 17:26:53;;;;;;;;;;;;;;;21.04;45.93;96820.31;10445263;28;1967;-56
2022/03/20 17:31:54;;;;;;;;;;;;;;;21.02;45.54;96827.69;10437218;28;1862;-58
2022/03/20 17:36:56;;;;;;;;;;;;;;;21.01;45.43;96828.72;10447204;28;1841;-59
2022/03/20 17:41:57;;;;;;;;;;;;;;;21.02;44.53;96832.97;10433188;28;2022;-59
2022/03/20 17:46:58;;;;;;;;;;;;;;;20.99;44.99;96837.91;10438369;28;1906;-59
2022/03/20 17:51:58;;;;;;;;;;;;;;;21.01;44.48;96846.38;10428898;28;1952;-57
2022/03/20 17:57:00;;;;;;;;;;;;;;;21.01;43.82;96857.72;10436922;28;1788;-59
2022/03/20 18:12:42;;;;;;;;;;;;;;;20.98;43.13;96871.38;10439049;28;1956;-59
2022/03/20 18:17:43;;;;;;;;;;;;;;;21.00;43.36;96871.13;10437238;28;1896;-59
2022/03/20 18:22:46;;;;;;;;;;;;;;;20.99;42.69;96870.34;10419513;28;2273;-59
2022/03/20 18:27:46;;;;;;;;;;;;;;;20.99;42.21;96873.00;10435148;28;1971;-57
2022/03/20 18:32:47;;;;;;;;;;;;;;;20.99;42.25;96874.81;10437173;28;1831;-57
2022/03/20 18:37:49;;;;;;;;;;;;;;;21.00;42.44;96877.19;10441378;28;1847;-58
2022/03/20 18:42:50;;;;;;;;;;;;;;;21.00;42.09;96879.84;10434535;28;1953;-57
2022/03/20 18:47:57;;;;;;;;;;;;;;;21.01;41.89;96880.63;10442786;28;1973;-55
2022/03/20 18:52:57;;;;;;;;;;;;;;;21.01;42.07;96878.81;10436572;28;2121;-58
2022/03/20 18:57:58;;;;;;;;;;;;;;;21.01;41.50;96883.28;10432512;28;1767;-58
2022/03/20 19:02:58;;;;;;;;;;;;;;;21.02;41.81;96890.16;10439081;28;1846;-58
2022/03/20 19:07:59;;;;;;;;;;;;;;;21.00;41.83;96879.84;10435547;28;1981;-59
2022/03/20 19:13:01;;;;;;;;;;;;;;;21.02;41.76;96885.69;10433058;28;1835;-53
2022/03/20 19:18:01;;;;;;;;;;;;;;;21.02;41.43;96875.13;10437506;28;1826;-58
2022/03/20 19:23:02;;;;;;;;;;;;;;;21.03;41.30;96878.56;10444771;28;1852;-57
2022/03/20 19:28:02;;;;;;;;;;;;;;;21.03;41.35;96876.75;10429140;28;1972;-57
2022/03/20 19:33:03;;;;;;;;;;;;;;;21.03;41.27;96882.03;10434087;28;1810;-58
2022/03/20 19:43:25;;;;;;;;;;;;;;;21.08;40.71;96877.84;10435345;28;1754;-58
2022/03/20 19:48:25;;;;;;;;;;;;;;;21.10;40.37;96881.03;10427837;28;1910;-59
2022/03/20 19:53:26;;;;;;;;;;;;;;;21.11;40.73;96885.22;10437643;28;1849;-60
2022/03/20 19:58:26;;;;;;;;;;;;;;;21.12;40.79;96878.94;10436713;28;2016;-58
2022/03/20 20:03:27;;;;;;;;;;;;;;;21.12;40.67;96884.19;10440932;28;1860;-56
2022/03/20 20:08:28;;;;;;;;;;;;;;;21.12;40.73;96900.03;10435635;28;1969;-57
2022/03/20 20:18:48;;;;;;;;;;;;;;;21.12;40.39;96894.75;10436617;28;2020;-58
2022/03/20 20:23:48;;;;;;;;;;;;;;;21.17;40.22;96897.41;10436942;28;1919;-56
2022/03/20 20:28:48;;;;;;;;;;;;;;;21.21;40.33;96898.50;10432729;28;1910;-58
2022/03/20 20:33:50;;;;;;;;;;;;;;;21.25;40.75;96896.97;10443939;28;1791;-57
2022/03/20 20:38:51;;;;;;;;;;;;;;;21.27;40.94;96898.31;10436122;28;1761;-57
2022/03/20 20:43:51;;;;;;;;;;;;;;;21.33;39.18;96885.97;10441276;28;1972;-57
2022/03/20 20:48:52;;;;;;;;;;;;;;;21.50;37.56;96887.44;10440339;28;1979;-55
2022/03/20 20:53:53;;;;;;;;;;;;;;;21.50;38.08;96890.06;10440515;28;1811;-52
2022/03/20 20:58:53;;;;;;;;;;;;;;;21.45;40.36;96889.25;10435935;28;1817;-53
2022/03/20 21:03:54;;;;;;;;;;;;;;;21.41;39.51;96878.38;10440760;28;1777;-52
2022/03/20 21:14:14;;;;;;;;;;;;;;;21.36;40.19;96878.34;10437052;28;1928;-55
2022/03/20 21:19:15;;;;;;;;;;;;;;;21.35;40.23;96881.25;10429945;28;1861;-54
2022/03/20 21:24:16;;;;;;;;;;;;;;;21.37;39.18;96892.34;10435820;28;1947;-51
2022/03/20 21:29:17;;;;;;;;;;;;;;;21.36;38.99;96890.75;10435998;28;2583;-52
2022/03/20 21:34:17;;;;;;;;;;;;;;;21.36;39.94;96912.66;10430500;28;1833;-53
2022/03/20 21:39:18;;;;;;;;;;;;;;;21.38;39.26;96904.47;10431796;28;1830;-53
2022/03/20 21:44:18;;;;;;;;;;;;;;;21.36;38.76;96911.84;10432234;28;1743;-55
2022/03/20 21:49:18;;;;;;;;;;;;;;;21.36;38.49;96906.56;10430467;28;1945;-52
2022/03/20 21:54:19;;;;;;;;;;;;;;;21.38;38.41;96905.28;10440579;28;2142;-52
2022/03/20 21:59:24;;;;;;;;;;;;;;;21.38;37.38;96910.56;10430404;28;2178;-55
2022/03/20 22:04:24;;;;;;;;;;;;;;;21.38;38.50;96907.13;10436026;28;1840;-53
2022/03/20 22:09:25;;;;;;;;;;;;;;;21.37;38.75;96908.16;10441847;28;1914;-52
2022/03/20 22:14:25;;;;;;;;;;;;;;;21.38;37.76;96904.47;10445037;28;1826;-52
2022/03/20 22:19:25;;;;;;;;;;;;;;;21.37;37.92;96905.53;10432662;28;1823;-51
2022/03/20 22:24:29;;;;;;;;;;;;;;;21.38;37.32;96905.28;10433915;28;1866;-53
2022/03/20 22:29:32;;;;;;;;;;;;;;;21.39;36.97;96914.00;10432000;28;1981;-50
2022/03/20 22:34:33;;;;;;;;;;;;;;;21.38;36.61;96921.09;10452118;22;2263;-72
2022/03/20 22:39:34;;;;;;;;;;;;;;;21.41;36.30;96917.19;10480601;28;1760;-75
2022/03/20 22:44:34;;;;;;;;;;;;;;;21.39;36.47;96916.63;10479946;28;1809;-76
2022/03/20 22:54:55;;;;;;;;;;;;;;;21.39;35.78;96912.13;10477478;28;1905;-77
2022/03/20 22:59:56;;;;;;;;;;;;;;;21.40;36.29;96915.56;10447600;28;1804;-75
2022/03/20 23:04:57;;;;;;;;;;;;;;;21.43;35.94;96901.91;10462800;28;1749;-76
2022/03/20 23:09:58;;;;;;;;;;;;;;;21.42;35.62;96905.56;10478969;28;1949;-75
2022/03/20 23:14:58;;;;;;;;;;;;;;;21.39;36.46;96901.56;10482703;28;1738;-75
2022/03/20 23:19:59;;;;;;;;;;;;;;;21.43;34.63;96901.91;10479503;28;1869;-75
2022/03/20 23:25:03;;;;;;;;;;;;;;;21.43;34.80;96904.53;10466379;28;1821;-75
2022/03/20 23:30:04;;;;;;;;;;;;;;;21.44;35.62;96903.47;10468692;28;1949;-75
2022/03/20 23:35:04;;;;;;;;;;;;;;;21.46;34.45;96906.66;10478027;28;1800;-74
2022/03/20 23:40:05;;;;;;;;;;;;;;;21.46;35.01;96906.66;10492783;28;1815;-75
2022/03/20 23:45:06;;;;;;;;;;;;;;;21.46;34.37;96906.66;10479574;28;1711;-76
2022/03/20 23:50:08;;;;;;;;;;;;;;;21.45;34.19;96899.78;10489839;28;1968;-76
2022/03/20 23:55:08;;;;;;;;;;;;;;;21.45;34.10;96916.41;10491144;28;1898;-76
